Post Falls, Idaho
Current Conditions -  °F | °C
As of 6:15 AM on Friday 19 Dec 2014 (Local Time) from KCOE Reporting Station
Overcast Overcast  
Wind Chill: 37°   Ceiling: 2300
Heat Index: 37°   Visibility: 5mi
Dew Point: 36°   Wind: 3mph
Humidity: 93%   Direction: 70°ENE
Pressure: 29.88"   Gusts: NA
Location:  47.71°N, 116.94°W
Report Text: KCOE 191415Z AUTO 07003KT 5SM OVC023 03/02 A2988 RMK AO1 P0003
Loading
Personal Weather Stations






























Interactive Weather Map New forecast layout! Learn more

10-Day Weather Forecast

Advertisements
Track Severe Weather on mobile